CheckWX is a tool to help pilots better visualize weather data.  It is not intended as a substitute for an official pre-flight weather briefing.

16:40:05 UTC

KBBG METAR
Branson Airport
Branson, Missouri, USA
Current

48 mins ago

KBBG 051552Z 00000KT 10SM OVC005 10/10 A3013
Observed
Apr-5 @ 15:52 UTC
Visibility
Flight Rules
IFR
Cloud Levels
  • Overcast at 500' AGL
Temperature
10°C / 50°F
Dewpoint
10°C / 50°F
Humidity
100%
Altimeter
30.13" Hg
Pressure
1020.32 hPa
Previous

2 hours ago

KBBG 051454Z 00000KT 3SM BR OVC004 09/09 A3012
Observed
Apr-5 @ 14:54 UTC
Visibility
Flight Rules
LIFR
Conditions
Mist
Cloud Levels
  • Overcast at 400' AGL
Temperature
C / 48°F
Dewpoint
C / 48°F
Humidity
100%
Altimeter
30.12" Hg
Pressure
1020.02 hPa
Previous

3 hours ago

KBBG 051356Z 00000KT 1/2SM FG OVC003 08/08 A3012
Observed
Apr-5 @ 13:56 UTC
Visibility
Flight Rules
LIFR
Conditions
Fog
Cloud Levels
  • Overcast at 300' AGL
Temperature
C / 46°F
Dewpoint
C / 46°F
Humidity
100%
Altimeter
30.12" Hg
Pressure
1020.02 hPa